Rumula, Australia
Current Conditions -  °F | °C
As of 11:00 PM on Saturday 25 Oct 2014 (Local Time) from YBCS Reporting Station
Few Clouds Few Clouds  
Wind Chill: 72°   Ceiling: Unl
Heat Index: 72°   Visibility: 6mi
Dew Point: 61°   Wind: 8mph
Humidity: 69%   Direction: 170°S
Pressure: 30.06"   Gusts: NA
Location:  16.55°S, 145.35°E
Report Text: YBCS 251300Z 17007KT 9999 FEW028 22/16 Q1018 NOSIG
Loading
Personal Weather Stations






























Interactive Weather Map
Tropical Storm Tracking
New forecast layout! Learn more

10-Day Weather Forecast

Advertisements
Track Severe Weather on mobile